Time;durP1;ratioP1;P1;durP2;ratioP2;P2;SDS_P1;SDS_P2;PMS_P1;PMS_P2;Temp;Humidity;BMP_temperature;BMP_pressure;BME280_temperature;BME280_humidity;BME280_pressure;Samples;Min_cycle;Max_cycle;Signal;HPM_P1;HPM_P2
2022/04/20 00:01:06;;;;;;;14.07;3.95;;;9.60;99.90;;;;;;5034763;28;20563;-60
2022/04/20 00:03:32;;;;;;;14.07;4.30;;;9.60;99.90;;;;;;5031662;28;20032;-60
2022/04/20 00:05:58;;;;;;;10.00;3.83;;;9.50;99.90;;;;;;5037610;28;20478;-61
2022/04/20 00:08:23;;;;;;;10.13;3.70;;;9.50;99.90;;;;;;5034915;28;20032;-60
2022/04/20 00:10:49;;;;;;;11.48;4.03;;;9.50;99.90;;;;;;5033484;28;20092;-60
2022/04/20 00:13:15;;;;;;;13.38;4.43;;;9.50;99.90;;;;;;5033717;28;20036;-61
2022/04/20 00:15:41;;;;;;;13.85;5.13;;;9.50;99.90;;;;;;5031067;28;20025;-61
2022/04/20 00:18:06;;;;;;;12.00;4.25;;;9.50;99.90;;;;;;5037223;28;20056;-60
2022/04/20 00:20:32;;;;;;;11.73;4.40;;;9.60;99.90;;;;;;5035167;28;20025;-60
2022/04/20 00:22:58;;;;;;;13.77;5.97;;;9.50;99.90;;;;;;5034813;28;20055;-61
2022/04/20 00:25:24;;;;;;;11.68;4.88;;;9.60;99.90;;;;;;5034490;28;20033;-61
2022/04/20 00:27:49;;;;;;;12.48;3.78;;;9.60;99.90;;;;;;5030615;28;20025;-61
2022/04/20 00:30:15;;;;;;;14.07;10.15;;;9.50;99.90;;;;;;5035218;28;20156;-60
2022/04/20 00:32:41;;;;;;;12.75;7.03;;;9.60;99.90;;;;;;5067724;28;20466;-60
2022/04/20 00:35:08;;;;;;;13.68;7.57;;;9.60;99.90;;;;;;5034651;28;20036;-60
2022/04/20 00:37:34;;;;;;;40.33;32.10;;;9.60;99.90;;;;;;5034615;28;20061;-60
2022/04/20 00:40:04;;;;;;;51.97;46.35;;;9.60;99.90;;;;;;5032772;28;20041;-61
2022/04/20 00:42:31;;;;;;;56.95;41.30;;;9.60;99.90;;;;;;5031741;28;20814;-60
2022/04/20 00:44:57;;;;;;;52.35;35.28;;;9.70;99.90;;;;;;5036610;28;20033;-60
2022/04/20 00:47:24;;;;;;;42.78;34.35;;;9.70;99.90;;;;;;5034484;28;20026;-60
2022/04/20 00:49:51;;;;;;;13.45;7.05;;;9.60;99.90;;;;;;5033109;28;20037;-60
2022/04/20 00:52:17;;;;;;;10.77;4.13;;;9.50;99.90;;;;;;5033094;28;20024;-60
2022/04/20 00:54:43;;;;;;;9.38;4.30;;;9.60;99.90;;;;;;5030707;28;20025;-60
2022/04/20 00:57:12;;;;;;;12.23;3.75;;;9.70;99.90;;;;;;5035845;28;20032;-60
2022/04/20 00:59:39;;;;;;;12.18;3.50;;;9.70;99.90;;;;;;5033601;28;20391;-60
2022/04/20 01:02:05;;;;;;;10.25;3.30;;;9.70;99.90;;;;;;5034829;28;20038;-60
2022/04/20 01:04:31;;;;;;;10.40;3.40;;;9.60;99.90;;;;;;5034448;28;20040;-61
2022/04/20 01:07:09;;;;;;;10.50;3.85;;;9.60;99.90;;;;;;5029685;28;20029;-60
2022/04/20 01:09:35;;;;;;;10.50;4.10;;;9.70;99.90;;;;;;5029834;28;20040;-60
2022/04/20 01:12:02;;;;;;;11.40;3.42;;;9.70;99.90;;;;;;5036250;28;20021;-60
2022/04/20 01:14:28;;;;;;;9.90;3.78;;;9.60;99.90;;;;;;5034347;28;20091;-60
2022/04/20 01:16:53;;;;;;;11.13;3.53;;;9.60;99.90;;;;;;5034295;28;20112;-60
2022/04/20 01:19:19;;;;;;;12.43;3.60;;;9.70;99.90;;;;;;5034228;28;20127;-60
2022/04/20 01:21:45;;;;;;;9.95;3.33;;;9.60;99.90;;;;;;5033176;28;20550;-59
2022/04/20 01:24:11;;;;;;;8.52;3.50;;;9.60;99.90;;;;;;5039008;28;20034;-60
2022/04/20 01:26:39;;;;;;;10.70;3.70;;;9.60;99.90;;;;;;5037311;28;20022;-59
2022/04/20 01:29:07;;;;;;;11.30;3.60;;;9.60;99.90;;;;;;5036803;28;20398;-60
2022/04/20 01:31:32;;;;;;;9.50;3.55;;;9.60;99.90;;;;;;5036741;28;20038;-61
2022/04/20 01:33:58;;;;;;;6.97;3.25;;;9.60;99.90;;;;;;5036711;28;20029;-60
2022/04/20 01:36:24;;;;;;;10.68;3.90;;;9.60;99.90;;;;;;5035458;28;20017;-60
2022/04/20 01:38:50;;;;;;;8.15;3.53;;;9.70;99.90;;;;;;5039528;28;20057;-61
2022/04/20 01:41:15;;;;;;;8.23;3.30;;;9.60;99.90;;;;;;5037916;28;20024;-60
2022/04/20 01:43:42;;;;;;;8.82;3.10;;;9.60;99.90;;;;;;5038302;28;20037;-60
2022/04/20 01:46:07;;;;;;;9.52;3.42;;;9.60;99.90;;;;;;5036162;28;20025;-60
2022/04/20 01:48:33;;;;;;;9.73;3.75;;;9.50;99.90;;;;;;5033871;28;20072;-60
2022/04/20 01:53:43;;;;;;;12.82;4.25;;;9.60;99.90;;;;;;5038514;28;20109;-60
2022/04/20 01:56:08;;;;;;;11.18;3.80;;;9.60;99.90;;;;;;5037681;28;20104;-59
2022/04/20 01:58:35;;;;;;;10.32;3.65;;;9.60;99.90;;;;;;5037613;28;20028;-61
2022/04/20 02:02:34;;;;;;;8.45;3.83;;;9.60;99.90;;;;;;5036064;28;20033;-60
2022/04/20 02:03:47;;;;;;;10.30;3.80;;;9.60;99.90;;;;;;5019459;28;20032;-60
2022/04/20 02:06:14;;;;;;;11.43;3.70;;;9.60;99.90;;;;;;5037858;28;20021;-60
2022/04/20 02:08:40;;;;;;;9.02;3.72;;;9.60;99.90;;;;;;5037127;28;20137;-60
2022/04/20 02:11:06;;;;;;;12.93;4.03;;;9.60;99.90;;;;;;5035987;28;20526;-61
2022/04/20 02:13:32;;;;;;;8.25;3.47;;;9.60;99.90;;;;;;5037353;28;20029;-60
2022/04/20 02:15:58;;;;;;;10.50;3.80;;;9.60;99.90;;;;;;5035937;28;20064;-61
2022/04/20 02:18:24;;;;;;;9.23;3.63;;;9.60;99.90;;;;;;5034797;28;20061;-60
2022/04/20 02:20:50;;;;;;;11.05;4.10;;;9.60;99.90;;;;;;5038880;28;20512;-61
2022/04/20 02:23:16;;;;;;;9.68;4.20;;;9.60;99.90;;;;;;5037504;28;20017;-61
2022/04/20 02:25:42;;;;;;;8.35;3.80;;;9.60;99.90;;;;;;5035857;28;20541;-61
2022/04/20 02:28:07;;;;;;;10.73;3.75;;;9.70;99.90;;;;;;5036626;28;20028;-61
2022/04/20 02:30:33;;;;;;;9.40;3.78;;;9.70;99.90;;;;;;5033354;28;20033;-61
2022/04/20 02:32:59;;;;;;;8.52;3.83;;;9.70;99.90;;;;;;5038873;28;20087;-60
2022/04/20 02:35:26;;;;;;;11.77;3.53;;;9.70;99.90;;;;;;5036550;28;20033;-61
2022/04/20 02:37:52;;;;;;;10.07;3.97;;;9.70;99.90;;;;;;5036758;28;20053;-61
2022/04/20 02:40:18;;;;;;;11.98;3.55;;;9.70;99.90;;;;;;5037316;28;20017;-61
2022/04/20 02:42:45;;;;;;;9.18;3.88;;;9.70;99.90;;;;;;5032968;28;20442;-60
2022/04/20 02:45:11;;;;;;;9.73;4.18;;;9.80;99.90;;;;;;5036879;28;20057;-60
2022/04/20 02:47:37;;;;;;;10.27;3.88;;;9.70;99.90;;;;;;5035593;28;20116;-60
2022/04/20 02:50:03;;;;;;;7.13;3.72;;;9.80;99.90;;;;;;5035196;28;20116;-61
2022/04/20 02:52:29;;;;;;;11.15;4.28;;;9.80;99.90;;;;;;5036833;28;20020;-60
2022/04/20 02:54:55;;;;;;;10.68;4.43;;;9.80;99.90;;;;;;5034495;28;20021;-61
2022/04/20 02:57:21;;;;;;;12.85;4.03;;;9.70;99.90;;;;;;5035692;28;20585;-61
2022/04/20 02:59:47;;;;;;;10.60;4.68;;;9.80;99.90;;;;;;5038067;28;20031;-60
2022/04/20 03:02:12;;;;;;;13.00;4.43;;;9.80;99.90;;;;;;5036398;28;20021;-59
2022/04/20 03:04:38;;;;;;;11.45;4.15;;;9.80;99.90;;;;;;5034882;28;20021;-61
2022/04/20 03:07:04;;;;;;;11.60;4.38;;;9.90;99.90;;;;;;5035308;28;20056;-61
2022/04/20 03:09:30;;;;;;;9.32;4.10;;;9.80;99.90;;;;;;5033369;28;20049;-61
2022/04/20 03:11:55;;;;;;;8.40;4.13;;;9.80;99.90;;;;;;5038246;28;20494;-60
2022/04/20 03:14:21;;;;;;;12.55;4.45;;;9.80;99.90;;;;;;5036351;28;20053;-60
2022/04/20 03:16:48;;;;;;;10.93;4.10;;;9.80;99.90;;;;;;5036148;28;20021;-60
2022/04/20 03:19:14;;;;;;;10.57;4.22;;;9.80;99.90;;;;;;5035728;28;20036;-61
2022/04/20 03:21:39;;;;;;;9.55;4.35;;;9.90;99.90;;;;;;5032081;28;20025;-60
2022/04/20 03:24:05;;;;;;;9.80;4.50;;;9.70;99.90;;;;;;5037960;28;20030;-60
2022/04/20 03:26:31;;;;;;;10.07;4.65;;;9.80;99.90;;;;;;5034636;28;20033;-60
2022/04/20 03:28:57;;;;;;;8.27;4.57;;;9.70;99.90;;;;;;5034862;28;20135;-61
2022/04/20 03:31:23;;;;;;;11.35;4.75;;;9.70;99.90;;;;;;5035966;28;20021;-60
2022/04/20 03:33:48;;;;;;;11.40;4.55;;;9.60;99.90;;;;;;5032499;28;20025;-60
2022/04/20 03:36:14;;;;;;;10.60;4.45;;;9.60;99.90;;;;;;5034821;28;20030;-60
2022/04/20 03:38:40;;;;;;;9.52;5.05;;;9.70;99.90;;;;;;5035331;28;20045;-60
2022/04/20 03:41:06;;;;;;;10.73;4.90;;;9.60;99.90;;;;;;5035822;28;20375;-60
2022/04/20 03:43:32;;;;;;;8.23;4.43;;;9.70;99.90;;;;;;5035147;28;20029;-60
2022/04/20 03:45:58;;;;;;;11.18;4.75;;;9.60;99.90;;;;;;5033831;28;20028;-60
2022/04/20 03:48:24;;;;;;;8.30;4.63;;;9.70;99.90;;;;;;5032801;28;20022;-60
2022/04/20 03:50:50;;;;;;;11.35;4.72;;;9.70;99.90;;;;;;5035910;28;20387;-60
2022/04/20 03:53:16;;;;;;;10.77;5.20;;;9.70;99.90;;;;;;5035572;28;20044;-60
2022/04/20 03:55:43;;;;;;;7.97;5.40;;;9.70;99.90;;;;;;5035479;28;20021;-61
2022/04/20 03:58:08;;;;;;;11.63;5.40;;;9.70;99.90;;;;;;5035446;28;20021;-59
2022/04/20 04:00:34;;;;;;;9.65;4.78;;;9.60;99.90;;;;;;5031269;28;20021;-61
2022/04/20 04:03:00;;;;;;;10.15;4.90;;;9.60;99.90;;;;;;5036885;28;20497;-60
2022/04/20 04:05:26;;;;;;;8.55;5.30;;;9.70;99.90;;;;;;5034074;28;20033;-60
2022/04/20 04:07:52;;;;;;;9.50;5.60;;;9.60;99.90;;;;;;5033769;28;20033;-60
2022/04/20 04:10:18;;;;;;;9.32;5.47;;;9.70;99.90;;;;;;5035163;28;20036;-60
2022/04/20 04:12:44;;;;;;;8.02;5.05;;;9.60;99.90;;;;;;5030439;28;20052;-60
2022/04/20 04:15:10;;;;;;;11.00;5.72;;;9.70;99.90;;;;;;5035952;28;20468;-59
2022/04/20 04:17:36;;;;;;;8.15;5.25;;;9.60;99.90;;;;;;5035345;28;20108;-60
2022/04/20 04:20:03;;;;;;;9.68;5.47;;;9.60;99.90;;;;;;5035045;28;20132;-60
2022/04/20 04:22:28;;;;;;;7.70;5.47;;;9.60;99.90;;;;;;5033683;28;20498;-60
2022/04/20 04:24:56;;;;;;;9.32;5.93;;;9.60;99.90;;;;;;5032575;28;20025;-60
2022/04/20 04:27:22;;;;;;;10.68;5.25;;;9.70;99.90;;;;;;5033151;28;20029;-60
2022/04/20 04:29:48;;;;;;;8.90;5.90;;;9.70;99.90;;;;;;5036451;28;20055;-60
2022/04/20 04:32:14;;;;;;;8.70;5.55;;;9.60;99.90;;;;;;5033239;28;20040;-60
2022/04/20 04:34:40;;;;;;;8.15;5.53;;;9.70;99.90;;;;;;5034718;28;20506;-60
2022/04/20 04:37:09;;;;;;;9.20;6.22;;;9.70;99.90;;;;;;5034014;28;20499;-60
2022/04/20 04:39:34;;;;;;;10.93;6.13;;;9.70;99.90;;;;;;5031028;28;20052;-60
2022/04/20 04:42:03;;;;;;;8.30;5.97;;;9.50;99.90;;;;;;5036720;28;20475;-60
2022/04/20 04:44:29;;;;;;;8.63;5.85;;;9.70;99.90;;;;;;5032150;28;20028;-60
2022/04/20 04:49:40;;;;;;;9.30;5.70;;;9.70;99.90;;;;;;5034380;28;20064;-60
2022/04/20 04:52:11;;;;;;;7.20;6.07;;;9.60;99.90;;;;;;5034177;28;20052;-60
2022/04/20 04:54:39;;;;;;;9.23;6.20;;;9.60;99.90;;;;;;5014248;28;20018;-60
2022/04/20 04:57:07;;;;;;;8.88;6.35;;;9.60;99.90;;;;;;5047203;28;20031;-61
2022/04/20 04:59:34;;;;;;;9.13;6.43;;;9.50;99.90;;;;;;5034395;28;20489;-60
2022/04/20 05:02:00;;;;;;;6.95;6.07;;;9.60;99.90;;;;;;5032701;28;20113;-59
2022/04/20 05:04:26;;;;;;;8.32;6.22;;;9.70;99.90;;;;;;5034557;28;20112;-60
2022/04/20 05:06:51;;;;;;;10.25;6.38;;;9.60;99.90;;;;;;5032031;28;20060;-59
2022/04/20 05:09:17;;;;;;;7.82;6.60;;;9.60;99.90;;;;;;5033501;28;20080;-60
2022/04/20 05:11:43;;;;;;;8.57;6.20;;;9.50;99.90;;;;;;5035382;28;20502;-60
2022/04/20 05:14:09;;;;;;;9.07;6.30;;;9.70;99.90;;;;;;5034082;28;20030;-60
2022/04/20 05:16:35;;;;;;;9.43;5.78;;;9.70;99.90;;;;;;5033933;28;20018;-59
2022/04/20 05:19:01;;;;;;;6.47;5.50;;;9.60;99.90;;;;;;5032720;28;20029;-60
2022/04/20 05:21:27;;;;;;;6.55;5.90;;;9.60;99.90;;;;;;5031519;28;20116;-63
2022/04/20 05:23:54;;;;;;;8.52;5.68;;;9.70;99.90;;;;;;5034542;28;20112;-60
2022/04/20 05:26:21;;;;;;;7.93;6.18;;;9.60;99.90;;;;;;5032836;28;20049;-59
2022/04/20 05:28:46;;;;;;;7.35;5.70;;;9.70;99.90;;;;;;5032739;28;20080;-60
2022/04/20 05:31:12;;;;;;;9.18;6.07;;;9.60;99.90;;;;;;5033794;28;20021;-60
2022/04/20 05:33:38;;;;;;;7.30;5.55;;;9.50;99.90;;;;;;5030352;28;20026;-60
2022/04/20 05:36:04;;;;;;;8.65;5.10;;;9.60;99.90;;;;;;5036078;28;20448;-60
2022/04/20 05:41:55;;;;;;;7.82;5.30;;;9.50;99.90;;;;;;5032654;28;20036;-59
2022/04/20 05:44:02;;;;;;;8.75;5.38;;;9.60;99.90;;;;;;5030651;28;20053;-59
2022/04/20 05:46:28;;;;;;;7.55;5.38;;;9.60;99.90;;;;;;5033920;28;20509;-60
2022/04/20 05:48:54;;;;;;;7.88;5.32;;;9.80;99.90;;;;;;5031684;28;20025;-60
2022/04/20 05:51:20;;;;;;;5.35;4.80;;;9.50;99.90;;;;;;5032120;28;20045;-60
2022/04/20 05:53:46;;;;;;;6.35;5.07;;;9.60;99.90;;;;;;5035139;28;20030;-61
2022/04/20 05:56:11;;;;;;;5.32;4.72;;;9.60;99.90;;;;;;5033720;28;20116;-60
2022/04/20 05:58:37;;;;;;;6.65;5.30;;;9.50;99.90;;;;;;5033758;28;20022;-61
2022/04/20 06:01:03;;;;;;;7.03;4.88;;;9.60;99.90;;;;;;5031342;28;20036;-61
2022/04/20 06:03:28;;;;;;;6.65;5.03;;;9.60;99.90;;;;;;5030753;28;20061;-61
2022/04/20 06:05:54;;;;;;;5.57;4.93;;;9.50;99.90;;;;;;5034503;28;20029;-61
2022/04/20 06:08:20;;;;;;;6.53;5.30;;;9.50;99.90;;;;;;5037141;28;20091;-60
2022/04/20 06:10:46;;;;;;;8.02;5.30;;;9.50;99.90;;;;;;5037304;28;20079;-60
2022/04/20 06:13:12;;;;;;;6.93;5.60;;;9.50;99.90;;;;;;5037131;28;20032;-61
2022/04/20 06:15:38;;;;;;;5.90;5.18;;;9.50;99.90;;;;;;5033579;28;20022;-61
2022/04/20 06:18:04;;;;;;;7.97;5.43;;;9.40;99.90;;;;;;5039394;28;20088;-60
2022/04/20 06:20:29;;;;;;;5.50;5.00;;;9.40;99.90;;;;;;5037478;28;20390;-60
2022/04/20 06:22:55;;;;;;;6.30;4.60;;;9.40;99.90;;;;;;5037351;28;20112;-59
2022/04/20 06:25:21;;;;;;;6.13;5.53;;;9.50;99.90;;;;;;5037001;28;20100;-61
2022/04/20 06:27:47;;;;;;;5.55;4.95;;;9.40;99.90;;;;;;5033667;28;20033;-60
2022/04/20 06:30:12;;;;;;;6.20;4.90;;;9.50;99.90;;;;;;5037422;28;20034;-60
2022/04/20 06:32:38;;;;;;;6.07;5.13;;;9.40;99.90;;;;;;5037611;28;20026;-59
2022/04/20 06:35:05;;;;;;;6.18;4.60;;;9.40;99.90;;;;;;5037058;28;20021;-59
2022/04/20 06:37:30;;;;;;;6.47;5.00;;;9.30;99.90;;;;;;5036727;28;20052;-60
2022/04/20 06:39:56;;;;;;;6.38;5.10;;;9.50;99.90;;;;;;5033697;28;20030;-59
2022/04/20 06:42:23;;;;;;;5.43;4.75;;;9.40;99.90;;;;;;5034956;28;20033;-59
2022/04/20 06:44:48;;;;;;;7.90;5.55;;;9.40;99.90;;;;;;5036461;28;20178;-59
2022/04/20 06:47:14;;;;;;;5.80;4.72;;;9.40;99.90;;;;;;5035676;28;20112;-59
2022/04/20 06:49:41;;;;;;;6.22;4.82;;;9.50;99.90;;;;;;5036546;28;20036;-59
2022/04/20 07:00:19;;;;;;;5.40;4.70;;;9.50;99.90;;;;;;5049362;28;19912;-61
2022/04/20 07:02:45;;;;;;;6.60;4.78;;;9.30;99.90;;;;;;5037734;28;20109;-60
2022/04/20 07:05:11;;;;;;;6.30;4.70;;;9.30;99.90;;;;;;5036866;28;20044;-61
2022/04/20 07:07:37;;;;;;;10.55;5.38;;;9.40;99.90;;;;;;5035357;28;20048;-61
2022/04/20 07:10:04;;;;;;;7.63;5.07;;;9.30;99.90;;;;;;5035002;28;20486;-61
2022/04/20 07:12:30;;;;;;;6.40;4.93;;;9.40;99.90;;;;;;5032979;28;20827;-61
2022/04/20 07:14:55;;;;;;;6.32;5.10;;;9.40;99.90;;;;;;5037970;28;20085;-61
2022/04/20 07:17:21;;;;;;;5.30;4.60;;;9.50;99.90;;;;;;5036014;28;20026;-61
2022/04/20 07:19:47;;;;;;;7.60;4.70;;;9.50;99.90;;;;;;5034124;28;20025;-59
2022/04/20 07:22:12;;;;;;;7.05;4.30;;;9.60;99.90;;;;;;5034663;28;20148;-59
2022/04/20 07:24:38;;;;;;;5.88;4.43;;;9.50;99.90;;;;;;5030591;28;20410;-58
2022/04/20 07:27:04;;;;;;;6.13;4.40;;;9.50;99.90;;;;;;5037972;28;20071;-59
2022/04/20 07:29:30;;;;;;;5.20;4.30;;;9.50;99.90;;;;;;5035922;28;20044;-60
2022/04/20 07:31:55;;;;;;;6.88;4.45;;;9.40;99.90;;;;;;5035850;28;20454;-60
2022/04/20 07:34:21;;;;;;;4.57;4.18;;;9.40;99.90;;;;;;5036371;28;20025;-60
2022/04/20 07:36:49;;;;;;;5.82;4.18;;;9.50;99.90;;;;;;5032179;28;20498;-60
2022/04/20 07:39:15;;;;;;;6.40;4.70;;;9.40;99.90;;;;;;5035773;28;20033;-60
2022/04/20 07:41:40;;;;;;;6.30;4.55;;;9.50;99.90;;;;;;5036175;28;20128;-60
2022/04/20 07:44:06;;;;;;;7.10;4.22;;;9.70;99.90;;;;;;5035723;28;20029;-59
2022/04/20 07:46:32;;;;;;;6.43;4.28;;;9.60;99.90;;;;;;5035494;28;20083;-60
2022/04/20 07:50:17;;;;;;;5.88;4.03;;;9.50;99.90;;;;;;5033639;28;20060;-61
2022/04/20 07:51:44;;;;;;;6.95;4.30;;;9.50;99.90;;;;;;5016456;28;20018;-60
2022/04/20 07:54:09;;;;;;;6.47;3.75;;;9.70;99.90;;;;;;5036516;28;20117;-60
2022/04/20 07:56:35;;;;;;;4.60;3.45;;;9.80;99.90;;;;;;5035652;28;20108;-60
2022/04/20 07:59:01;;;;;;;4.53;3.55;;;9.60;99.90;;;;;;5034340;28;20112;-59
2022/04/20 08:01:26;;;;;;;3.70;3.28;;;9.50;99.90;;;;;;5033792;28;20025;-61
2022/04/20 08:03:52;;;;;;;4.47;3.60;;;9.40;99.90;;;;;;5032540;28;20458;-58
2022/04/20 08:06:18;;;;;;;4.55;3.80;;;9.60;99.90;;;;;;5034495;28;20053;-60
2022/04/20 08:08:43;;;;;;;5.57;3.50;;;9.70;99.90;;;;;;5036116;28;20029;-59
2022/04/20 08:11:09;;;;;;;3.92;3.47;;;9.60;99.90;;;;;;5035292;28;20453;-59
2022/04/20 08:16:19;;;;;;;3.65;3.30;;;9.60;99.90;;;;;;5033802;28;20501;-59
2022/04/20 08:18:45;;;;;;;5.38;3.10;;;9.90;99.90;;;;;;5031440;28;20025;-59
2022/04/20 08:21:10;;;;;;;3.72;3.38;;;9.90;99.90;;;;;;5036177;28;20467;-59
2022/04/20 08:23:37;;;;;;;4.78;3.45;;;9.60;99.90;;;;;;5035290;28;20053;-58
2022/04/20 08:26:03;;;;;;;4.70;3.65;;;9.70;99.90;;;;;;5034858;28;20406;-59
2022/04/20 08:28:30;;;;;;;3.63;3.33;;;9.70;99.90;;;;;;5034869;28;20017;-58
2022/04/20 08:30:56;;;;;;;5.43;3.42;;;9.80;99.90;;;;;;5032958;28;20033;-58
2022/04/20 08:33:22;;;;;;;3.80;3.28;;;9.90;99.90;;;;;;5033125;28;20371;-61
2022/04/20 08:35:48;;;;;;;3.25;2.92;;;9.90;99.90;;;;;;5036309;28;20025;-58
2022/04/20 08:38:14;;;;;;;4.70;3.67;;;9.90;99.90;;;;;;5032897;28;20131;-59
2022/04/20 08:40:40;;;;;;;4.22;3.20;;;9.70;99.90;;;;;;5033340;28;20499;-59
2022/04/20 08:43:06;;;;;;;4.63;3.00;;;9.80;99.90;;;;;;5034005;28;20025;-59
2022/04/20 08:45:37;;;;;;;4.43;3.35;;;9.70;99.90;;;;;;5031177;28;20039;-58
2022/04/20 08:48:03;;;;;;;4.13;3.40;;;9.80;99.90;;;;;;5036516;28;20125;-59
2022/04/20 08:50:29;;;;;;;4.78;3.25;;;9.70;99.90;;;;;;5034698;28;20044;-58
2022/04/20 08:52:56;;;;;;;4.10;3.03;;;10.00;99.90;;;;;;5034345;28;20449;-58
2022/04/20 08:55:22;;;;;;;4.05;2.85;;;10.10;99.90;;;;;;5033005;28;20033;-59
2022/04/20 08:57:50;;;;;;;3.85;2.90;;;10.20;99.90;;;;;;5031641;28;20030;-59
2022/04/20 09:00:23;;;;;;;2.70;2.50;;;10.00;99.90;;;;;;5034592;28;20025;-59
2022/04/20 09:02:56;;;;;;;2.95;2.67;;;10.00;99.90;;;;;;5036246;28;20057;-59
2022/04/20 09:05:23;;;;;;;3.83;2.38;;;10.00;99.90;;;;;;5034226;28;20112;-58
2022/04/20 09:07:49;;;;;;;4.25;2.58;;;10.20;99.90;;;;;;5033939;28;20477;-59
2022/04/20 09:10:16;;;;;;;4.82;2.80;;;10.10;99.90;;;;;;5034537;28;20039;-60
2022/04/20 09:12:43;;;;;;;3.50;2.60;;;10.00;99.90;;;;;;5030578;28;20049;-62
2022/04/20 09:15:12;;;;;;;2.97;2.40;;;10.10;99.90;;;;;;5035698;28;20025;-62
2022/04/20 09:17:47;;;;;;;2.58;2.38;;;9.80;99.90;;;;;;5033347;28;20036;-62
2022/04/20 09:20:17;;;;;;;5.05;2.63;;;10.00;99.90;;;;;;5032548;28;20112;-61
2022/04/20 09:23:01;;;;;;;2.50;2.25;;;10.00;99.90;;;;;;5033880;28;20013;-60
2022/04/20 09:25:31;;;;;;;;;;;10.10;99.90;;;;;;5034546;28;20037;-59
2022/04/20 09:27:57;;;;;;;2.78;2.20;;;10.10;99.90;;;;;;5032036;28;20400;-59
2022/04/20 09:30:22;;;;;;;2.10;1.90;;;10.30;99.90;;;;;;5032319;28;20112;-59
2022/04/20 09:32:49;;;;;;;2.60;1.80;;;10.40;99.90;;;;;;5035827;28;20105;-61
2022/04/20 09:35:18;;;;;;;2.75;1.90;;;10.30;99.90;;;;;;5032586;28;20029;-60
2022/04/20 09:37:45;;;;;;;3.45;1.90;;;10.40;99.90;;;;;;5033404;28;20041;-60
2022/04/20 09:40:14;;;;;;;2.60;2.10;;;10.30;99.90;;;;;;5034186;28;20033;-60
2022/04/20 09:42:59;;;;;;;1.88;1.77;;;10.20;99.90;;;;;;5016751;28;20116;-60
2022/04/20 09:45:25;;;;;;;3.65;1.80;;;10.40;99.90;;;;;;5048088;28;20032;-60
2022/04/20 09:50:35;;;;;;;4.30;1.80;;;10.50;99.90;;;;;;5036362;28;20088;-60
2022/04/20 09:53:06;;;;;;;5.18;2.00;;;10.50;99.90;;;;;;5037405;28;20030;-60
2022/04/20 09:55:37;;;;;;;1.92;1.77;;;10.30;99.90;;;;;;5036088;28;20470;-60
2022/04/20 09:58:20;;;;;;;1.80;1.60;;;10.30;99.90;;;;;;5035366;28;20025;-60
2022/04/20 10:00:47;;;;;;;3.55;1.90;;;10.30;99.90;;;;;;5019195;28;20037;-60
2022/04/20 10:03:25;;;;;;;2.47;1.80;;;10.40;99.90;;;;;;5037881;28;20048;-60
2022/04/20 10:05:51;;;;;;;2.05;1.88;;;10.50;99.90;;;;;;5037306;28;20124;-59
2022/04/20 10:08:19;;;;;;;1.92;1.60;;;10.30;99.90;;;;;;5037593;28;20029;-59
2022/04/20 10:10:46;;;;;;;2.35;1.60;;;10.50;99.90;;;;;;5037630;28;20040;-60
2022/04/20 10:13:11;;;;;;;1.42;1.33;;;10.60;99.90;;;;;;5036165;28;20029;-61
2022/04/20 10:18:25;;;;;;;1.40;1.30;;;11.00;99.90;;;;;;5047798;28;20109;-60
2022/04/20 10:20:57;;;;;;;3.08;1.50;;;10.80;99.90;;;;;;5037276;28;20033;-59
2022/04/20 10:23:23;;;;;;;2.20;1.52;;;10.70;99.90;;;;;;5037237;28;20102;-60
2022/04/20 10:25:53;;;;;;;2.55;1.50;;;10.70;99.90;;;;;;5036992;28;20064;-60
2022/04/20 10:28:44;;;;;;;2.17;1.52;;;10.60;99.90;;;;;;5037242;28;20025;-59
2022/04/20 10:31:22;;;;;;;1.70;1.45;;;10.40;99.90;;;;;;5036619;28;20033;-58
2022/04/20 10:33:48;;;;;;;2.40;1.83;;;10.60;99.90;;;;;;5017432;28;20056;-58
2022/04/20 10:36:16;;;;;;;2.22;1.55;;;10.80;99.90;;;;;;5037225;28;20032;-59
2022/04/20 10:38:44;;;;;;;1.70;1.40;;;10.90;99.90;;;;;;5036249;28;20037;-60
2022/04/20 10:41:14;;;;;;;2.30;1.60;;;11.10;99.90;;;;;;5037279;28;20033;-59
2022/04/20 10:43:42;;;;;;;3.38;1.80;;;11.20;99.90;;;;;;5036877;28;20402;-59
2022/04/20 10:46:14;;;;;;;1.70;1.50;;;11.30;99.90;;;;;;5036119;28;20444;-59
2022/04/20 10:48:58;;;;;;;1.95;1.80;;;11.50;99.90;;;;;;5016410;28;20104;-59
2022/04/20 10:51:35;;;;;;;1.70;1.60;;;11.10;99.90;;;;;;5047850;28;20547;-60
2022/04/20 10:54:23;;;;;;;1.80;1.70;;;10.90;99.90;;;;;;5036252;28;20029;-60
2022/04/20 10:56:50;;;;;;;2.30;1.65;;;11.20;99.90;;;;;;5037931;28;20680;-60
2022/04/20 10:59:17;;;;;;;1.63;1.40;;;10.80;99.90;;;;;;5036133;28;20375;-59
2022/04/20 11:01:58;;;;;;;3.45;1.60;;;11.10;99.90;;;;;;5036327;28;20389;-60
2022/04/20 11:04:46;;;;;;;1.60;1.50;;;10.80;99.90;;;;;;5036189;28;20060;-59
2022/04/20 11:07:12;;;;;;;2.78;1.73;;;10.80;99.90;;;;;;5036293;28;20037;-58
2022/04/20 11:09:41;;;;;;;2.10;1.35;;;11.10;99.90;;;;;;5016189;28;20135;-59
2022/04/20 11:21:03;;;;;;;1.50;1.40;;;11.00;99.90;;;;;;5036373;28;20049;-59
2022/04/20 11:24:01;;;;;;;1.77;1.60;;;10.70;99.90;;;;;;5036160;28;20026;-58
2022/04/20 11:26:39;;;;;;;1.95;1.45;;;10.80;99.90;;;;;;5036186;28;20034;-60
2022/04/20 11:29:17;;;;;;;1.90;1.70;;;10.80;99.90;;;;;;5035955;28;20043;-59
2022/04/20 11:31:51;;;;;;;1.75;1.65;;;11.00;99.90;;;;;;5036103;28;20029;-59
2022/04/20 11:34:20;;;;;;;1.88;1.70;;;10.90;99.90;;;;;;5035983;28;20167;-59
2022/04/20 11:36:54;;;;;;;2.55;1.70;;;11.00;99.90;;;;;;5032059;28;20037;-58
2022/04/20 11:39:24;;;;;;;2.40;2.00;;;10.40;99.90;;;;;;5034947;28;20044;-59
2022/04/20 11:41:52;;;;;;;2.38;2.17;;;10.50;99.90;;;;;;5037702;28;20486;-59
2022/04/20 11:44:27;;;;;;;2.30;2.10;;;10.30;99.90;;;;;;5036150;28;20026;-59
2022/04/20 11:46:57;;;;;;;2.30;2.10;;;10.40;99.90;;;;;;5035398;28;20029;-60
2022/04/20 11:49:36;;;;;;;2.25;2.05;;;10.70;99.90;;;;;;5035407;28;20041;-63
2022/04/20 11:52:06;;;;;;;2.30;2.10;;;10.80;99.90;;;;;;5032236;28;20498;-60
2022/04/20 11:54:33;;;;;;;2.47;2.28;;;10.50;99.90;;;;;;5032359;28;20037;-59
2022/04/20 11:56:59;;;;;;;2.35;2.22;;;10.50;99.90;;;;;;5036436;28;20396;-60
2022/04/20 11:59:25;;;;;;;3.47;3.17;;;10.50;99.90;;;;;;5035323;28;20080;-59
2022/04/20 12:01:51;;;;;;;2.05;1.95;;;10.90;99.90;;;;;;5035017;28;20032;-63
2022/04/20 12:04:18;;;;;;;3.28;2.60;;;11.00;99.90;;;;;;5035050;28;20025;-59
2022/04/20 12:06:52;;;;;;;4.55;4.18;;;10.90;99.90;;;;;;5031494;28;20084;-60
2022/04/20 12:09:28;;;;;;;31.77;26.27;;;10.90;99.90;;;;;;5034616;28;20148;-60
2022/04/20 12:11:59;;;;;;;3.63;2.75;;;11.10;99.90;;;;;;5035402;28;20014;-60
2022/04/20 12:14:32;;;;;;;8.00;7.22;;;11.10;99.90;;;;;;5034924;28;20510;-59
2022/04/20 12:17:04;;;;;;;3.25;2.95;;;11.10;99.90;;;;;;5035058;28;20018;-60
2022/04/20 12:19:30;;;;;;;2.60;2.40;;;11.10;99.90;;;;;;5035148;28;20525;-60
2022/04/20 12:22:13;;;;;;;3.10;2.80;;;11.10;99.90;;;;;;5032587;28;20036;-59
2022/04/20 12:24:43;;;;;;;2.47;2.10;;;11.30;99.90;;;;;;5028955;28;20105;-60
2022/04/20 12:27:19;;;;;;;2.13;1.95;;;11.10;99.90;;;;;;5043954;28;20780;-59
2022/04/20 12:29:56;;;;;;;8.95;8.15;;;10.80;99.90;;;;;;5035450;28;20045;-60
2022/04/20 12:32:41;;;;;;;3.05;2.85;;;11.00;99.90;;;;;;5033498;28;20025;-62
2022/04/20 12:35:07;;;;;;;3.33;2.60;;;11.00;99.90;;;;;;5033456;28;20010;-60
2022/04/20 12:37:39;;;;;;;5.03;3.17;;;10.90;99.90;;;;;;5034596;28;20045;-60
2022/04/20 12:40:25;;;;;;;3.72;3.42;;;11.10;99.90;;;;;;5033489;28;20040;-60
2022/04/20 12:43:05;;;;;;;35.05;32.15;;;10.80;99.90;;;;;;5017456;28;20041;-60
2022/04/20 12:45:32;;;;;;;3.05;2.75;;;11.00;99.90;;;;;;5031179;28;20038;-60
2022/04/20 12:48:11;;;;;;;3.15;2.65;;;11.20;99.90;;;;;;5036544;28;20022;-61
2022/04/20 12:50:43;;;;;;;3.08;2.47;;;11.00;99.90;;;;;;5033031;28;20046;-61
2022/04/20 12:53:09;;;;;;;9.52;8.65;;;11.20;99.90;;;;;;5035003;28;20029;-61
2022/04/20 12:55:36;;;;;;;2.53;2.33;;;11.30;99.90;;;;;;5034344;28;20405;-60
2022/04/20 13:03:37;;;;;;;;;;;10.80;99.90;;;;;;5030814;28;20566;-60
2022/04/20 13:06:06;;;;;;;2.30;2.10;;;11.20;99.90;;;;;;5036031;28;20273;-61
2022/04/20 13:08:32;;;;;;;24.73;22.83;;;11.30;99.90;;;;;;5034463;28;20040;-61
2022/04/20 13:10:58;;;;;;;2.80;2.60;;;11.20;99.90;;;;;;5032354;28;20510;-60
2022/04/20 13:13:25;;;;;;;7.35;6.75;;;11.40;99.90;;;;;;5032268;28;20028;-61
2022/04/20 13:15:51;;;;;;;3.85;2.20;;;11.40;99.90;;;;;;5030920;28;20041;-60
2022/04/20 13:18:17;;;;;;;2.00;1.80;;;11.40;99.90;;;;;;5033542;28;20087;-61
2022/04/20 13:20:43;;;;;;;3.03;2.10;;;11.30;99.90;;;;;;5034677;28;20033;-60
2022/04/20 13:23:08;;;;;;;1.70;1.60;;;11.60;99.90;;;;;;5034279;28;20380;-61
2022/04/20 13:28:18;;;;;;;30.63;4.10;;;11.60;99.90;;;;;;5034263;28;20064;-60
2022/04/20 13:30:46;;;;;;;2.40;2.20;;;11.50;99.90;;;;;;5029814;28;20112;-60
2022/04/20 13:33:14;;;;;;;2.97;2.40;;;11.70;99.90;;;;;;5034537;28;20025;-60
2022/04/20 13:35:45;;;;;;;3.25;2.20;;;11.40;99.90;;;;;;5033065;28;20497;-60